sensor_id;sensor_type;location;lat;lon;timestamp;pressure;altitude;pressure_sealevel;temperature;humidity
52535;BME280;38443;53.164;5.802;2022-12-24T00:00:21;100436.53;;;4.71;100.00
52535;BME280;38443;53.164;5.802;2022-12-24T00:02:49;100444.47;;;4.71;100.00
52535;BME280;38443;53.164;5.802;2022-12-24T00:05:14;100432.16;;;4.67;100.00
52535;BME280;38443;53.164;5.802;2022-12-24T00:07:39;100431.25;;;4.68;100.00
52535;BME280;38443;53.164;5.802;2022-12-24T00:10:05;100431.25;;;4.68;100.00
52535;BME280;38443;53.164;5.802;2022-12-24T00:12:31;100439.25;;;4.65;100.00
52535;BME280;38443;53.164;5.802;2022-12-24T00:14:59;100441.84;;;4.67;100.00
52535;BME280;38443;53.164;5.802;2022-12-24T00:17:24;100448.94;;;4.68;100.00
52535;BME280;38443;53.164;5.802;2022-12-24T00:19:49;100448.94;;;4.65;100.00
52535;BME280;38443;53.164;5.802;2022-12-24T00:22:15;100455.16;;;4.65;100.00
52535;BME280;38443;53.164;5.802;2022-12-24T00:24:40;100456.03;;;4.63;100.00
52535;BME280;38443;53.164;5.802;2022-12-24T00:27:05;100443.63;;;4.66;100.00
52535;BME280;38443;53.164;5.802;2022-12-24T00:29:31;100453.41;;;4.63;100.00
52535;BME280;38443;53.164;5.802;2022-12-24T00:31:56;100458.69;;;4.66;100.00
52535;BME280;38443;53.164;5.802;2022-12-24T00:34:22;100461.31;;;4.66;100.00
52535;BME280;38443;53.164;5.802;2022-12-24T00:36:48;100461.28;;;4.69;100.00
52535;BME280;38443;53.164;5.802;2022-12-24T00:39:13;100464.78;;;4.71;100.00
52535;BME280;38443;53.164;5.802;2022-12-24T00:41:38;100469.28;;;4.67;100.00
52535;BME280;38443;53.164;5.802;2022-12-24T00:44:05;100471.00;;;4.71;100.00
52535;BME280;38443;53.164;5.802;2022-12-24T00:46:36;100468.28;;;4.73;100.00
52535;BME280;38443;53.164;5.802;2022-12-24T00:49:02;100468.28;;;4.73;100.00
52535;BME280;38443;53.164;5.802;2022-12-24T00:51:29;100465.63;;;4.74;100.00
52535;BME280;38443;53.164;5.802;2022-12-24T00:53:54;100471.00;;;4.70;100.00
52535;BME280;38443;53.164;5.802;2022-12-24T00:56:20;100463.91;;;4.73;100.00
52535;BME280;38443;53.164;5.802;2022-12-24T00:58:46;100466.56;;;4.70;100.00
52535;BME280;38443;53.164;5.802;2022-12-24T01:01:12;100466.53;;;4.73;100.00
52535;BME280;38443;53.164;5.802;2022-12-24T01:03:37;100471.88;;;4.70;100.00
52535;BME280;38443;53.164;5.802;2022-12-24T01:06:17;100470.06;;;4.72;100.00
52535;BME280;38443;53.164;5.802;2022-12-24T01:08:43;100483.31;;;4.74;100.00
52535;BME280;38443;53.164;5.802;2022-12-24T01:11:10;100478.94;;;4.71;100.00
52535;BME280;38443;53.164;5.802;2022-12-24T01:13:35;100487.72;;;4.75;100.00
52535;BME280;38443;53.164;5.802;2022-12-24T01:16:01;100493.94;;;4.72;100.00
52535;BME280;38443;53.164;5.802;2022-12-24T01:18:27;100490.34;;;4.76;100.00
52535;BME280;38443;53.164;5.802;2022-12-24T01:23:20;100500.09;;;4.76;100.00
52535;BME280;38443;53.164;5.802;2022-12-24T01:25:46;100508.06;;;4.74;100.00
52535;BME280;38443;53.164;5.802;2022-12-24T01:28:11;100501.81;;;4.77;100.00
52535;BME280;38443;53.164;5.802;2022-12-24T01:30:36;100501.88;;;4.74;100.00
52535;BME280;38443;53.164;5.802;2022-12-24T01:33:02;100500.94;;;4.78;100.00
52535;BME280;38443;53.164;5.802;2022-12-24T01:35:27;100505.41;;;4.76;100.00
52535;BME280;38443;53.164;5.802;2022-12-24T01:37:52;100510.66;;;4.79;100.00
52535;BME280;38443;53.164;5.802;2022-12-24T01:40:19;100512.41;;;4.80;100.00
52535;BME280;38443;53.164;5.802;2022-12-24T01:43:14;100515.94;;;4.80;100.00
52535;BME280;38443;53.164;5.802;2022-12-24T01:45:57;100522.09;;;4.81;100.00
52535;BME280;38443;53.164;5.802;2022-12-24T01:48:37;100526.53;;;4.82;100.00
52535;BME280;38443;53.164;5.802;2022-12-24T01:56:32;100536.19;;;4.88;100.00
52535;BME280;38443;53.164;5.802;2022-12-24T01:59:03;100537.94;;;4.89;100.00
52535;BME280;38443;53.164;5.802;2022-12-24T02:01:31;100545.00;;;4.91;100.00
52535;BME280;38443;53.164;5.802;2022-12-24T02:03:56;100540.53;;;4.95;100.00
52535;BME280;38443;53.164;5.802;2022-12-24T02:06:22;100559.94;;;4.97;100.00
52535;BME280;38443;53.164;5.802;2022-12-24T02:08:47;100548.44;;;4.99;100.00
52535;BME280;38443;53.164;5.802;2022-12-24T02:13:38;100555.47;;;5.04;100.00
52535;BME280;38443;53.164;5.802;2022-12-24T02:16:11;100549.25;;;5.05;100.00
52535;BME280;38443;53.164;5.802;2022-12-24T02:24:31;100570.25;;;5.23;100.00
52535;BME280;38443;53.164;5.802;2022-12-24T02:32:31;100580.75;;;5.35;100.00
52535;BME280;38443;53.164;5.802;2022-12-24T02:35:03;100586.88;;;5.40;100.00
52535;BME280;38443;53.164;5.802;2022-12-24T02:37:36;100591.25;;;5.45;100.00
52535;BME280;38443;53.164;5.802;2022-12-24T02:40:10;100600.91;;;5.49;100.00
52535;BME280;38443;53.164;5.802;2022-12-24T02:42:44;100599.13;;;5.52;100.00
52535;BME280;38443;53.164;5.802;2022-12-24T02:45:13;100602.63;;;5.56;100.00
52535;BME280;38443;53.164;5.802;2022-12-24T02:47:40;100600.81;;;5.58;100.00
52535;BME280;38443;53.164;5.802;2022-12-24T02:50:09;100600.81;;;5.58;100.00
52535;BME280;38443;53.164;5.802;2022-12-24T02:52:40;100613.22;;;5.56;100.00
52535;BME280;38443;53.164;5.802;2022-12-24T02:59:13;100611.44;;;5.58;100.00
52535;BME280;38443;53.164;5.802;2022-12-24T03:06:28;100622.84;;;5.65;100.00
52535;BME280;38443;53.164;5.802;2022-12-24T03:09:06;100627.22;;;5.69;100.00
52535;BME280;38443;53.164;5.802;2022-12-24T03:11:33;100627.13;;;5.75;100.00
52535;BME280;38443;53.164;5.802;2022-12-24T03:14:02;100640.38;;;5.79;100.00
52535;BME280;38443;53.164;5.802;2022-12-24T03:16:27;100635.88;;;5.83;100.00
52535;BME280;38443;53.164;5.802;2022-12-24T03:18:54;100635.84;;;5.86;100.00
52535;BME280;38443;53.164;5.802;2022-12-24T03:21:29;100640.25;;;5.89;100.00
52535;BME280;38443;53.164;5.802;2022-12-24T03:23:56;100647.31;;;5.90;100.00
52535;BME280;38443;53.164;5.802;2022-12-24T03:26:22;100649.06;;;5.92;100.00
52535;BME280;38443;53.164;5.802;2022-12-24T03:28:49;100655.22;;;5.94;100.00
52535;BME280;38443;53.164;5.802;2022-12-24T03:31:14;100656.13;;;5.95;100.00
52535;BME280;38443;53.164;5.802;2022-12-24T03:33:40;100656.13;;;5.96;100.00
52535;BME280;38443;53.164;5.802;2022-12-24T03:36:06;100657.88;;;5.94;100.00
52535;BME280;38443;53.164;5.802;2022-12-24T03:38:32;100664.13;;;5.92;100.00
52535;BME280;38443;53.164;5.802;2022-12-24T03:40:57;100669.47;;;5.89;100.00
52535;BME280;38443;53.164;5.802;2022-12-24T03:43:23;100670.38;;;5.86;100.00
52535;BME280;38443;53.164;5.802;2022-12-24T03:45:48;100671.38;;;5.77;100.00
52535;BME280;38443;53.164;5.802;2022-12-24T03:48:13;100671.47;;;5.71;100.00
52535;BME280;38443;53.164;5.802;2022-12-24T03:50:38;100671.56;;;5.60;100.00
52535;BME280;38443;53.164;5.802;2022-12-24T03:53:04;100675.19;;;5.55;100.00
52535;BME280;38443;53.164;5.802;2022-12-24T03:55:29;100677.03;;;5.48;100.00
52535;BME280;38443;53.164;5.802;2022-12-24T03:57:54;100678.88;;;5.42;100.00
52535;BME280;38443;53.164;5.802;2022-12-24T04:00:20;100681.63;;;5.31;100.00
52535;BME280;38443;53.164;5.802;2022-12-24T04:02:45;100688.72;;;5.29;100.00
52535;BME280;38443;53.164;5.802;2022-12-24T04:05:14;100693.22;;;5.25;100.00
52535;BME280;38443;53.164;5.802;2022-12-24T04:07:40;100694.97;;;5.25;100.00
52535;BME280;38443;53.164;5.802;2022-12-24T04:10:05;100696.75;;;5.24;100.00
52535;BME280;38443;53.164;5.802;2022-12-24T04:12:30;100702.00;;;5.29;100.00
52535;BME280;38443;53.164;5.802;2022-12-24T04:14:56;100694.03;;;5.30;100.00
52535;BME280;38443;53.164;5.802;2022-12-24T04:17:21;100703.72;;;5.34;100.00
52535;BME280;38443;53.164;5.802;2022-12-24T04:19:46;100703.72;;;5.36;100.00
52535;BME280;38443;53.164;5.802;2022-12-24T04:22:12;100711.63;;;5.39;100.00
52535;BME280;38443;53.164;5.802;2022-12-24T04:24:37;100716.94;;;5.39;100.00
52535;BME280;38443;53.164;5.802;2022-12-24T04:27:02;100710.72;;;5.42;100.00
52535;BME280;38443;53.164;5.802;2022-12-24T04:29:27;100709.81;;;5.43;100.00
52535;BME280;38443;53.164;5.802;2022-12-24T04:31:53;100723.09;;;5.44;100.00
52535;BME280;38443;53.164;5.802;2022-12-24T04:34:18;100723.97;;;5.45;100.00
52535;BME280;38443;53.164;5.802;2022-12-24T04:36:43;100717.75;;;5.47;100.00
52535;BME280;38443;53.164;5.802;2022-12-24T04:39:08;100718.63;;;5.48;100.00
52535;BME280;38443;53.164;5.802;2022-12-24T04:41:34;100713.28;;;5.51;100.00
52535;BME280;38443;53.164;5.802;2022-12-24T04:43:59;100723.00;;;5.53;100.00
52535;BME280;38443;53.164;5.802;2022-12-24T04:46:26;100727.38;;;5.56;100.00
52535;BME280;38443;53.164;5.802;2022-12-24T04:48:55;100730.84;;;5.61;100.00
52535;BME280;38443;53.164;5.802;2022-12-24T04:51:21;100735.28;;;5.64;100.00
52535;BME280;38443;53.164;5.802;2022-12-24T04:53:47;100736.09;;;5.69;100.00
52535;BME280;38443;53.164;5.802;2022-12-24T04:56:13;100729.88;;;5.71;100.00
52535;BME280;38443;53.164;5.802;2022-12-24T04:58:39;100729.84;;;5.74;100.00
52535;BME280;38443;53.164;5.802;2022-12-24T05:01:05;100733.34;;;5.78;100.00
52535;BME280;38443;53.164;5.802;2022-12-24T05:03:34;100732.41;;;5.80;100.00
52535;BME280;38443;53.164;5.802;2022-12-24T05:06:03;100734.16;;;5.83;100.00
52535;BME280;38443;53.164;5.802;2022-12-24T05:08:29;100736.81;;;5.85;100.00
52535;BME280;38443;53.164;5.802;2022-12-24T05:10:55;100733.28;;;5.83;100.00
52535;BME280;38443;53.164;5.802;2022-12-24T05:13:21;100730.59;;;5.86;100.00
52535;BME280;38443;53.164;5.802;2022-12-24T05:15:46;100725.28;;;5.86;100.00
52535;BME280;38443;53.164;5.802;2022-12-24T05:18:12;100725.25;;;5.87;100.00
52535;BME280;38443;53.164;5.802;2022-12-24T05:20:37;100730.63;;;5.84;100.00
52535;BME280;38443;53.164;5.802;2022-12-24T05:23:02;100738.56;;;5.86;100.00
52535;BME280;38443;53.164;5.802;2022-12-24T05:25:46;100735.88;;;5.89;100.00
52535;BME280;38443;53.164;5.802;2022-12-24T05:28:30;100735.00;;;5.88;100.00
52535;BME280;38443;53.164;5.802;2022-12-24T05:30:55;100736.78;;;5.86;100.00
52535;BME280;38443;53.164;5.802;2022-12-24T05:33:21;100739.47;;;5.85;100.00
52535;BME280;38443;53.164;5.802;2022-12-24T05:35:46;100750.16;;;5.78;100.00
52535;BME280;38443;53.164;5.802;2022-12-24T05:38:11;100759.03;;;5.77;100.00
52535;BME280;38443;53.164;5.802;2022-12-24T05:40:37;100753.81;;;5.70;100.00
52535;BME280;38443;53.164;5.802;2022-12-24T05:43:02;100751.13;;;5.71;100.00
52535;BME280;38443;53.164;5.802;2022-12-24T05:45:27;100762.66;;;5.67;100.00
52535;BME280;38443;53.164;5.802;2022-12-24T05:47:53;100761.78;;;5.67;100.00
52535;BME280;38443;53.164;5.802;2022-12-24T05:50:18;100763.63;;;5.60;100.00
52535;BME280;38443;53.164;5.802;2022-12-24T05:52:43;100758.31;;;5.60;100.00
52535;BME280;38443;53.164;5.802;2022-12-24T05:55:08;100759.31;;;5.51;100.00
52535;BME280;38443;53.164;5.802;2022-12-24T05:57:34;100773.47;;;5.49;100.00
52535;BME280;38443;53.164;5.802;2022-12-24T05:59:59;100776.22;;;5.39;100.00
52535;BME280;38443;53.164;5.802;2022-12-24T06:02:24;100778.91;;;5.36;100.00
52535;BME280;38443;53.164;5.802;2022-12-24T06:04:50;100778.09;;;5.27;100.00
52535;BME280;38443;53.164;5.802;2022-12-24T06:07:15;100778.13;;;5.22;100.00
52535;BME280;38443;53.164;5.802;2022-12-24T06:09:40;100780.84;;;5.13;100.00
52535;BME280;38443;53.164;5.802;2022-12-24T06:12:06;100787.97;;;5.09;100.00
52535;BME280;38443;53.164;5.802;2022-12-24T06:14:31;100793.31;;;5.03;100.00
52535;BME280;38443;53.164;5.802;2022-12-24T06:16:56;100802.16;;;5.02;100.00
52535;BME280;38443;53.164;5.802;2022-12-24T06:19:22;100802.22;;;4.97;100.00
52535;BME280;38443;53.164;5.802;2022-12-24T06:21:49;100811.03;;;4.98;100.00
52535;BME280;38443;53.164;5.802;2022-12-24T06:24:17;100811.09;;;4.93;100.00
52535;BME280;38443;53.164;5.802;2022-12-24T06:26:42;100806.69;;;4.86;100.00
52535;BME280;38443;53.164;5.802;2022-12-24T06:29:08;100811.13;;;4.81;100.00
52535;BME280;38443;53.164;5.802;2022-12-24T06:31:34;100820.94;;;4.71;100.00
52535;BME280;38443;53.164;5.802;2022-12-24T06:33:59;100820.94;;;4.68;100.00
52535;BME280;38443;53.164;5.802;2022-12-24T06:36:24;100818.31;;;4.62;100.00
52535;BME280;38443;53.164;5.802;2022-12-24T06:38:51;100824.50;;;4.64;100.00
52535;BME280;38443;53.164;5.802;2022-12-24T06:41:18;100815.69;;;4.64;100.00
52535;BME280;38443;53.164;5.802;2022-12-24T06:43:44;100825.41;;;4.57;100.00
52535;BME280;38443;53.164;5.802;2022-12-24T06:46:10;100825.44;;;4.54;100.00
52535;BME280;38443;53.164;5.802;2022-12-24T06:48:35;100835.19;;;4.46;100.00
52535;BME280;38443;53.164;5.802;2022-12-24T06:51:01;100836.06;;;4.46;100.00
52535;BME280;38443;53.164;5.802;2022-12-24T06:53:27;100827.25;;;4.44;100.00
52535;BME280;38443;53.164;5.802;2022-12-24T06:55:52;100833.44;;;4.40;100.00
52535;BME280;38443;53.164;5.802;2022-12-24T06:58:17;100833.44;;;4.40;100.00
52535;BME280;38443;53.164;5.802;2022-12-24T07:00:43;100845.81;;;4.35;100.00
52535;BME280;38443;53.164;5.802;2022-12-24T07:03:08;100838.78;;;4.34;100.00
52535;BME280;38443;53.164;5.802;2022-12-24T07:05:35;100856.47;;;4.33;100.00
52535;BME280;38443;53.164;5.802;2022-12-24T07:08:01;100853.81;;;4.29;100.00
52535;BME280;38443;53.164;5.802;2022-12-24T07:10:26;100862.66;;;4.28;100.00
52535;BME280;38443;53.164;5.802;2022-12-24T07:12:51;100855.59;;;4.24;100.00
52535;BME280;38443;53.164;5.802;2022-12-24T07:15:16;100847.66;;;4.24;100.00
52535;BME280;38443;53.164;5.802;2022-12-24T07:17:42;100859.13;;;4.23;100.00
52535;BME280;38443;53.164;5.802;2022-12-24T07:20:10;100860.03;;;4.23;100.00
52535;BME280;38443;53.164;5.802;2022-12-24T07:22:36;100863.53;;;4.24;100.00
52535;BME280;38443;53.164;5.802;2022-12-24T07:25:01;100865.28;;;4.26;100.00
52535;BME280;38443;53.164;5.802;2022-12-24T07:27:26;100864.41;;;4.29;100.00
52535;BME280;38443;53.164;5.802;2022-12-24T07:29:51;100869.69;;;4.29;100.00
52535;BME280;38443;53.164;5.802;2022-12-24T07:32:17;100871.47;;;4.30;100.00
52535;BME280;38443;53.164;5.802;2022-12-24T07:34:44;100875.91;;;4.29;100.00
52535;BME280;38443;53.164;5.802;2022-12-24T07:37:10;100880.28;;;4.29;100.00
52535;BME280;38443;53.164;5.802;2022-12-24T07:39:35;100879.41;;;4.30;100.00
52535;BME280;38443;53.164;5.802;2022-12-24T07:42:00;100888.28;;;4.27;100.00
52535;BME280;38443;53.164;5.802;2022-12-24T07:44:26;100897.97;;;4.27;100.00
52535;BME280;38443;53.164;5.802;2022-12-24T07:46:51;100893.56;;;4.23;100.00
52535;BME280;38443;53.164;5.802;2022-12-24T07:49:16;100905.91;;;4.27;100.00
52535;BME280;38443;53.164;5.802;2022-12-24T07:51:41;100911.22;;;4.30;100.00
52535;BME280;38443;53.164;5.802;2022-12-24T07:54:07;100910.28;;;4.37;100.00
52535;BME280;38443;53.164;5.802;2022-12-24T07:56:32;100906.75;;;4.47;100.00
52535;BME280;38443;53.164;5.802;2022-12-24T07:58:57;100912.91;;;4.55;100.00
52535;BME280;38443;53.164;5.802;2022-12-24T08:01:23;100918.19;;;4.62;100.00
52535;BME280;38443;53.164;5.802;2022-12-24T08:03:48;100920.81;;;4.65;100.00
52535;BME280;38443;53.164;5.802;2022-12-24T08:06:21;100931.38;;;4.71;100.00
52535;BME280;38443;53.164;5.802;2022-12-24T08:08:47;100929.63;;;4.74;100.00
52535;BME280;38443;53.164;5.802;2022-12-24T08:11:12;100932.25;;;4.80;100.00
52535;BME280;38443;53.164;5.802;2022-12-24T08:13:37;100946.38;;;4.86;100.00
52535;BME280;38443;53.164;5.802;2022-12-24T08:16:03;100948.13;;;4.90;100.00
52535;BME280;38443;53.164;5.802;2022-12-24T08:18:28;100953.41;;;4.93;100.00
52535;BME280;38443;53.164;5.802;2022-12-24T08:20:53;100964.00;;;4.97;100.00
52535;BME280;38443;53.164;5.802;2022-12-24T08:23:19;100964.84;;;5.06;100.00
52535;BME280;38443;53.164;5.802;2022-12-24T08:25:45;100971.91;;;5.10;100.00
52535;BME280;38443;53.164;5.802;2022-12-24T08:28:12;100964.78;;;5.15;100.00
52535;BME280;38443;53.164;5.802;2022-12-24T08:30:38;100965.66;;;5.22;100.00
52535;BME280;38443;53.164;5.802;2022-12-24T08:33:03;100975.34;;;5.29;100.00
52535;BME280;38443;53.164;5.802;2022-12-24T08:35:29;100962.03;;;5.35;100.00
52535;BME280;38443;53.164;5.802;2022-12-24T08:37:54;100972.59;;;5.43;100.00
52535;BME280;38443;53.164;5.802;2022-12-24T08:40:20;100978.78;;;5.46;100.00
52535;BME280;38443;53.164;5.802;2022-12-24T08:42:45;100986.72;;;5.54;100.00
52535;BME280;38443;53.164;5.802;2022-12-24T08:45:11;100979.56;;;5.59;100.00
52535;BME280;38443;53.164;5.802;2022-12-24T08:47:37;100976.00;;;5.65;100.00
52535;BME280;38443;53.164;5.802;2022-12-24T08:50:04;100976.00;;;5.69;100.00
52535;BME280;38443;53.164;5.802;2022-12-24T08:52:29;100988.31;;;5.75;100.00
52535;BME280;38443;53.164;5.802;2022-12-24T08:54:54;100985.66;;;5.78;100.00
52535;BME280;38443;53.164;5.802;2022-12-24T08:57:20;100988.31;;;5.79;100.00
52535;BME280;38443;53.164;5.802;2022-12-24T08:59:45;100998.88;;;5.86;100.00
52535;BME280;38443;53.164;5.802;2022-12-24T09:02:11;101000.63;;;5.88;100.00
52535;BME280;38443;53.164;5.802;2022-12-24T09:04:39;101006.81;;;5.92;100.00
52535;BME280;38443;53.164;5.802;2022-12-24T09:07:06;101004.16;;;5.93;100.00
52535;BME280;38443;53.164;5.802;2022-12-24T09:09:31;101005.00;;;5.97;100.00
52535;BME280;38443;53.164;5.802;2022-12-24T09:11:57;101005.00;;;5.98;100.00
52535;BME280;38443;53.164;5.802;2022-12-24T09:14:22;101000.56;;;6.02;100.00
52535;BME280;38443;53.164;5.802;2022-12-24T09:16:47;101018.19;;;6.09;100.00
52535;BME280;38443;53.164;5.802;2022-12-24T09:19:13;101012.00;;;6.13;100.00
52535;BME280;38443;53.164;5.802;2022-12-24T09:21:38;101020.84;;;6.15;100.00
52535;BME280;38443;53.164;5.802;2022-12-24T09:24:04;101026.97;;;6.19;100.00
52535;BME280;38443;53.164;5.802;2022-12-24T09:26:29;101032.28;;;6.22;100.00
52535;BME280;38443;53.164;5.802;2022-12-24T09:28:57;101027.81;;;6.26;100.00
52535;BME280;38443;53.164;5.802;2022-12-24T09:31:22;101034.00;;;6.28;100.00
52535;BME280;38443;53.164;5.802;2022-12-24T09:33:48;101037.50;;;6.31;100.00
52535;BME280;38443;53.164;5.802;2022-12-24T09:36:13;101038.38;;;6.35;100.00
52535;BME280;38443;53.164;5.802;2022-12-24T09:38:39;101036.56;;;6.40;100.00
52535;BME280;38443;53.164;5.802;2022-12-24T09:41:25;101037.38;;;6.47;100.00
52535;BME280;38443;53.164;5.802;2022-12-24T09:46:44;101047.13;;;6.46;100.00
52535;BME280;38443;53.164;5.802;2022-12-24T09:49:22;101052.47;;;6.43;100.00
52535;BME280;38443;53.164;5.802;2022-12-24T09:51:52;101055.13;;;6.43;100.00
52535;BME280;38443;53.164;5.802;2022-12-24T09:54:34;101065.75;;;6.43;100.00
52535;BME280;38443;53.164;5.802;2022-12-24T09:57:07;101063.09;;;6.45;100.00
52535;BME280;38443;53.164;5.802;2022-12-24T09:59:41;101071.06;;;6.46;100.00
52535;BME280;38443;53.164;5.802;2022-12-24T10:02:13;101064.84;;;6.47;100.00
52535;BME280;38443;53.164;5.802;2022-12-24T10:04:40;101079.00;;;6.51;100.00
52535;BME280;38443;53.164;5.802;2022-12-24T10:07:43;101077.19;;;6.53;100.00
52535;BME280;38443;53.164;5.802;2022-12-24T10:10:37;101071.88;;;6.57;100.00
52535;BME280;38443;53.164;5.802;2022-12-24T10:13:17;101069.16;;;6.64;100.00
52535;BME280;38443;53.164;5.802;2022-12-24T10:15:59;101069.09;;;6.68;100.00
52535;BME280;38443;53.164;5.802;2022-12-24T10:18:35;101078.81;;;6.72;100.00
52535;BME280;38443;53.164;5.802;2022-12-24T10:24:23;101080.47;;;6.84;100.00
52535;BME280;38443;53.164;5.802;2022-12-24T10:27:00;101084.84;;;6.88;100.00
52535;BME280;38443;53.164;5.802;2022-12-24T10:29:30;101097.22;;;6.91;100.00
52535;BME280;38443;53.164;5.802;2022-12-24T10:34:40;101087.47;;;6.93;100.00
52535;BME280;38443;53.164;5.802;2022-12-24T10:37:14;101088.38;;;6.92;100.00
52535;BME280;38443;53.164;5.802;2022-12-24T10:39:41;101090.97;;;6.95;100.00
52535;BME280;38443;53.164;5.802;2022-12-24T10:42:07;101098.09;;;6.96;100.00
52535;BME280;38443;53.164;5.802;2022-12-24T10:44:33;101097.16;;;6.97;100.00
52535;BME280;38443;53.164;5.802;2022-12-24T10:46:59;101091.91;;;6.92;100.00
52535;BME280;38443;53.164;5.802;2022-12-24T10:52:34;101099.84;;;6.95;100.00
52535;BME280;38443;53.164;5.802;2022-12-24T10:57:42;101096.25;;;7.01;100.00
52535;BME280;38443;53.164;5.802;2022-12-24T11:00:20;101099.75;;;7.03;100.00
52535;BME280;38443;53.164;5.802;2022-12-24T11:02:47;101107.72;;;7.06;100.00
52535;BME280;38443;53.164;5.802;2022-12-24T11:05:34;101112.19;;;7.06;100.00
52535;BME280;38443;53.164;5.802;2022-12-24T11:08:02;101109.47;;;7.09;100.00
52535;BME280;38443;53.164;5.802;2022-12-24T11:10:27;101105.00;;;7.11;100.00
52535;BME280;38443;53.164;5.802;2022-12-24T11:12:52;101098.84;;;7.07;100.00
52535;BME280;38443;53.164;5.802;2022-12-24T11:15:22;101102.34;;;7.11;100.00
52535;BME280;38443;53.164;5.802;2022-12-24T11:18:02;101096.16;;;7.12;100.00
52535;BME280;38443;53.164;5.802;2022-12-24T11:20:30;101097.88;;;7.16;100.00
52535;BME280;38443;53.164;5.802;2022-12-24T11:22:57;101099.59;;;7.18;100.00
52535;BME280;38443;53.164;5.802;2022-12-24T11:25:23;101097.88;;;7.16;100.00
52535;BME280;38443;53.164;5.802;2022-12-24T11:27:52;101113.78;;;7.22;100.00
52535;BME280;38443;53.164;5.802;2022-12-24T11:30:19;101115.59;;;7.17;100.00
52535;BME280;38443;53.164;5.802;2022-12-24T11:33:14;101111.97;;;7.23;100.00
52535;BME280;38443;53.164;5.802;2022-12-24T11:35:39;101124.38;;;7.25;100.00
52535;BME280;38443;53.164;5.802;2022-12-24T11:40:36;101133.28;;;7.24;100.00
52535;BME280;38443;53.164;5.802;2022-12-24T11:43:03;101131.41;;;7.31;100.00
52535;BME280;38443;53.164;5.802;2022-12-24T11:45:31;101136.75;;;7.31;100.00
52535;BME280;38443;53.164;5.802;2022-12-24T11:48:00;101138.53;;;7.32;100.00
52535;BME280;38443;53.164;5.802;2022-12-24T11:50:27;101138.53;;;7.27;100.00
52535;BME280;38443;53.164;5.802;2022-12-24T12:00:42;101149.97;;;7.38;100.00
52535;BME280;38443;53.164;5.802;2022-12-24T12:05:45;101154.38;;;7.43;100.00
52535;BME280;38443;53.164;5.802;2022-12-24T12:08:13;101156.22;;;7.36;100.00
52535;BME280;38443;53.164;5.802;2022-12-24T12:10:45;101167.69;;;7.41;100.00
52535;BME280;38443;53.164;5.802;2022-12-24T12:13:24;101161.50;;;7.39;100.00
52535;BME280;38443;53.164;5.802;2022-12-24T12:16:20;101173.94;;;7.37;100.00
52535;BME280;38443;53.164;5.802;2022-12-24T12:19:10;101172.22;;;7.34;100.00
52535;BME280;38443;53.164;5.802;2022-12-24T12:21:43;101189.06;;;7.35;100.00
52535;BME280;38443;53.164;5.802;2022-12-24T12:24:35;101182.00;;;7.32;100.00
52535;BME280;38443;53.164;5.802;2022-12-24T12:27:20;101183.75;;;7.33;100.00
52535;BME280;38443;53.164;5.802;2022-12-24T12:30:09;101183.72;;;7.36;100.00
52535;BME280;38443;53.164;5.802;2022-12-24T12:35:40;101190.84;;;7.36;100.00
52535;BME280;38443;53.164;5.802;2022-12-24T12:38:36;101189.97;;;7.32;100.00
52535;BME280;38443;53.164;5.802;2022-12-24T12:41:18;101191.72;;;7.36;100.00
52535;BME280;38443;53.164;5.802;2022-12-24T12:47:18;101198.91;;;7.28;100.00
52535;BME280;38443;53.164;5.802;2022-12-24T12:50:35;101210.47;;;7.24;100.00
52535;BME280;38443;53.164;5.802;2022-12-24T13:02:44;101202.56;;;7.15;100.00
52535;BME280;38443;53.164;5.802;2022-12-24T13:24:20;101216.97;;;6.89;100.00
52535;BME280;38443;53.164;5.802;2022-12-24T13:31:24;101223.38;;;6.68;100.00
52535;BME280;38443;53.164;5.802;2022-12-24T13:34:35;101237.59;;;6.63;100.00
52535;BME280;38443;53.164;5.802;2022-12-24T13:41:36;101243.81;;;6.55;100.00
52535;BME280;38443;53.164;5.802;2022-12-24T13:44:28;101247.38;;;6.57;100.00
52535;BME280;38443;53.164;5.802;2022-12-24T13:47:18;101253.59;;;6.55;100.00
52535;BME280;38443;53.164;5.802;2022-12-24T13:49:54;101263.34;;;6.57;100.00
52535;BME280;38443;53.164;5.802;2022-12-24T13:52:54;101273.06;;;6.62;100.00
52535;BME280;38443;53.164;5.802;2022-12-24T13:55:35;101274.81;;;6.61;100.00
52535;BME280;38443;53.164;5.802;2022-12-24T13:58:03;101274.81;;;6.63;100.00
52535;BME280;38443;53.164;5.802;2022-12-24T14:00:41;101273.06;;;6.62;100.00
52535;BME280;38443;53.164;5.802;2022-12-24T14:08:13;101292.63;;;6.50;100.00
52535;BME280;38443;53.164;5.802;2022-12-24T14:10:42;101294.41;;;6.45;100.00
52535;BME280;38443;53.164;5.802;2022-12-24T14:20:05;101307.84;;;6.22;100.00
52535;BME280;38443;53.164;5.802;2022-12-24T14:27:44;101319.38;;;5.93;100.00
52535;BME280;38443;53.164;5.802;2022-12-24T14:31:30;101312.31;;;5.81;100.00
52535;BME280;38443;53.164;5.802;2022-12-24T14:35:14;101323.84;;;5.71;100.00
52535;BME280;38443;53.164;5.802;2022-12-24T14:38:49;101325.63;;;5.61;100.00
52535;BME280;38443;53.164;5.802;2022-12-24T14:52:52;101355.75;;;5.20;100.00
52535;BME280;38443;53.164;5.802;2022-12-24T14:55:44;101368.97;;;5.11;100.00
52535;BME280;38443;53.164;5.802;2022-12-24T14:58:29;101374.28;;;5.05;100.00
52535;BME280;38443;53.164;5.802;2022-12-24T15:01:31;101377.81;;;4.97;100.00
52535;BME280;38443;53.164;5.802;2022-12-24T15:06:43;101381.34;;;4.92;100.00
52535;BME280;38443;53.164;5.802;2022-12-24T15:09:29;101376.03;;;4.86;100.00
52535;BME280;38443;53.164;5.802;2022-12-24T15:12:10;101385.75;;;4.85;100.00
52535;BME280;38443;53.164;5.802;2022-12-24T15:14:47;101382.19;;;4.80;100.00
52535;BME280;38443;53.164;5.802;2022-12-24T15:17:46;101383.91;;;4.75;100.00